Time;durP1;ratioP1;P1;durP2;ratioP2;P2;SDS_P1;SDS_P2;PMS_P1;PMS_P2;Temp;Humidity;BMP_temperature;BMP_pressure;BME280_temperature;BME280_humidity;BME280_pressure;Samples;Min_cycle;Max_cycle;Signal;HPM_P1;HPM_P2
2023/09/10 00:01:08;;;;;;;97.10;50.13;;;17.60;99.90;;;;;;4996246;28;20155;-79
2023/09/10 00:03:34;;;;;;;92.57;49.00;;;17.60;99.90;;;;;;4995777;28;20130;-79
2023/09/10 00:06:00;;;;;;;93.93;50.13;;;17.50;99.90;;;;;;4997122;28;20057;-78
2023/09/10 00:08:27;;;;;;;94.65;49.83;;;17.50;99.90;;;;;;4995962;28;20093;-79
2023/09/10 00:10:54;;;;;;;;;;;17.50;99.90;;;;;;4996061;28;20113;-78
2023/09/10 00:13:20;;;;;;;93.80;47.10;;;17.50;99.90;;;;;;4980304;28;20369;-79
2023/09/10 00:15:45;;;;;;;95.50;50.10;;;17.50;99.90;;;;;;4995432;28;20050;-78
2023/09/10 00:18:11;;;;;;;101.83;51.93;;;17.50;99.90;;;;;;4997029;28;20048;-77
2023/09/10 00:20:37;;;;;;;105.85;51.80;;;17.50;99.90;;;;;;4996202;28;20626;-79
2023/09/10 00:23:03;;;;;;;102.23;52.70;;;17.50;99.90;;;;;;4996568;28;20514;-79
2023/09/10 00:25:29;;;;;;;109.30;52.30;;;17.50;99.90;;;;;;4995898;28;20292;-79
2023/09/10 00:27:57;;;;;;;116.37;56.50;;;17.50;99.90;;;;;;4994883;28;20133;-78
2023/09/10 00:30:22;;;;;;;116.78;56.92;;;17.50;99.90;;;;;;4996360;28;20104;-78
2023/09/10 00:32:48;;;;;;;128.20;60.17;;;17.50;99.90;;;;;;4996431;28;20043;-78
2023/09/10 00:35:14;;;;;;;132.27;63.27;;;17.50;99.90;;;;;;4996217;28;20519;-79
2023/09/10 00:37:40;;;;;;;133.57;62.07;;;17.50;99.90;;;;;;4978760;28;20041;-79
2023/09/10 00:40:07;;;;;;;123.15;59.17;;;17.60;99.90;;;;;;4996112;28;20053;-78
2023/09/10 00:42:33;;;;;;;115.78;57.08;;;17.60;99.90;;;;;;4995629;28;20093;-80
2023/09/10 00:44:58;;;;;;;108.87;54.50;;;17.60;99.90;;;;;;4996845;28;20502;-78
2023/09/10 00:47:24;;;;;;;105.90;52.43;;;17.60;99.90;;;;;;4978967;28;20491;-79
2023/09/10 00:49:50;;;;;;;103.72;50.75;;;17.60;99.90;;;;;;4978884;28;20057;-79
2023/09/10 00:52:17;;;;;;;96.40;51.50;;;17.50;99.90;;;;;;4979634;28;20062;-79
2023/09/10 00:54:43;;;;;;;;;;;17.50;99.90;;;;;;4998662;28;20043;-77
2023/09/10 00:57:09;;;;;;;112.45;54.72;;;17.50;99.90;;;;;;4999122;28;19922;-79
2023/09/10 00:59:35;;;;;;;115.40;57.00;;;17.50;99.90;;;;;;4999253;28;20054;-79
2023/09/10 01:02:02;;;;;;;124.65;58.65;;;17.50;99.90;;;;;;4998776;28;20379;-78
2023/09/10 01:04:28;;;;;;;125.97;58.33;;;17.40;99.90;;;;;;4997890;28;20133;-78
2023/09/10 01:06:54;;;;;;;122.10;59.65;;;17.50;99.90;;;;;;4964341;28;20054;-78
2023/09/10 01:09:20;;;;;;;130.93;60.83;;;17.40;99.90;;;;;;4998024;28;20185;-78
2023/09/10 01:11:55;;;;;;;126.43;60.50;;;17.40;99.90;;;;;;4982516;28;20290;-79
2023/09/10 01:14:31;;;;;;;136.00;60.38;;;17.40;99.90;;;;;;4997399;28;20293;-79
2023/09/10 01:17:09;;;;;;;129.27;61.37;;;17.40;99.90;;;;;;4983104;28;20112;-79
2023/09/10 01:19:46;;;;;;;143.68;65.57;;;17.40;99.90;;;;;;4999792;28;20133;-78
2023/09/10 01:22:45;;;;;;;140.80;64.38;;;17.40;99.90;;;;;;4996681;28;20054;-79
2023/09/10 01:25:12;;;;;;;151.68;66.82;;;17.30;99.90;;;;;;4996176;28;20083;-79
2023/09/10 01:27:38;;;;;;;155.18;69.13;;;17.40;99.90;;;;;;4996805;28;20203;-78
2023/09/10 01:30:04;;;;;;;157.87;70.00;;;17.30;99.90;;;;;;4981739;28;20058;-78
2023/09/10 01:32:39;;;;;;;167.20;73.75;;;17.30;99.90;;;;;;4997089;28;20382;-78
2023/09/10 01:35:25;;;;;;;147.25;65.25;;;17.30;99.90;;;;;;4996122;28;20050;-78
2023/09/10 01:37:59;;;;;;;143.02;66.88;;;17.30;99.90;;;;;;4995361;28;20053;-78
2023/09/10 01:40:33;;;;;;;143.20;65.70;;;17.30;99.90;;;;;;4995289;28;20054;-79
2023/09/10 01:42:59;;;;;;;147.15;65.13;;;17.30;99.90;;;;;;4996229;28;20251;-78
2023/09/10 01:45:26;;;;;;;150.75;66.55;;;17.30;99.90;;;;;;4999743;28;20086;-78
2023/09/10 01:47:52;;;;;;;155.55;69.07;;;17.30;99.90;;;;;;4986809;28;20046;-79
2023/09/10 01:50:18;;;;;;;159.17;70.10;;;17.30;99.90;;;;;;5004170;28;20104;-77
2023/09/10 01:52:44;;;;;;;171.65;74.63;;;17.30;99.90;;;;;;5003977;28;20047;-77
2023/09/10 01:55:10;;;;;;;165.73;72.90;;;17.30;99.90;;;;;;5001822;28;20178;-79
2023/09/10 01:57:35;;;;;;;173.07;74.00;;;17.30;99.90;;;;;;5001897;28;20046;-79
2023/09/10 02:00:03;;;;;;;165.60;72.23;;;17.30;99.90;;;;;;4998240;28;20050;-79
2023/09/10 02:02:29;;;;;;;171.57;73.78;;;17.20;99.90;;;;;;4998344;28;20054;-79
2023/09/10 02:04:55;;;;;;;174.80;73.63;;;17.20;99.90;;;;;;4999775;28;20073;-78
2023/09/10 02:07:21;;;;;;;160.60;72.03;;;17.20;99.90;;;;;;4995965;28;20101;-79
2023/09/10 02:09:46;;;;;;;166.63;73.07;;;17.10;99.90;;;;;;4995684;28;20387;-78
2023/09/10 02:12:12;;;;;;;170.93;74.67;;;17.20;99.90;;;;;;4994788;28;20395;-78
2023/09/10 02:14:38;;;;;;;153.00;69.50;;;17.20;99.90;;;;;;4995983;28;20061;-79
2023/09/10 02:17:04;;;;;;;167.10;70.90;;;17.10;99.90;;;;;;4979226;28;20058;-78
2023/09/10 02:19:30;;;;;;;162.40;71.60;;;17.10;99.90;;;;;;4998753;28;20072;-78
2023/09/10 02:21:57;;;;;;;171.03;71.60;;;17.10;99.90;;;;;;4999800;28;20106;-79
2023/09/10 02:24:23;;;;;;;158.95;69.38;;;17.10;99.90;;;;;;4982315;28;20498;-78
2023/09/10 02:26:48;;;;;;;172.17;71.50;;;17.10;99.90;;;;;;4999551;28;20065;-79
2023/09/10 02:29:14;;;;;;;164.33;71.00;;;17.10;99.90;;;;;;4997562;28;20046;-79
2023/09/10 02:31:40;;;;;;;165.00;72.23;;;17.10;99.90;;;;;;4998785;28;20047;-79
2023/09/10 02:34:05;;;;;;;160.37;69.90;;;17.10;99.90;;;;;;4982466;28;20061;-79
2023/09/10 02:36:31;;;;;;;158.57;66.23;;;17.10;99.90;;;;;;4998631;28;20152;-79
2023/09/10 02:38:57;;;;;;;150.73;65.90;;;17.00;99.90;;;;;;4982294;28;20042;-78
2023/09/10 02:41:23;;;;;;;161.50;68.30;;;17.00;99.90;;;;;;5000154;28;20561;-78
2023/09/10 02:43:49;;;;;;;169.20;67.90;;;17.00;99.90;;;;;;4999228;28;20057;-79
2023/09/10 02:46:15;;;;;;;178.90;72.37;;;17.00;99.90;;;;;;4997357;28;20407;-79
2023/09/10 02:48:40;;;;;;;163.13;72.97;;;17.00;99.90;;;;;;4997253;28;20089;-78
2023/09/10 02:51:06;;;;;;;168.23;72.30;;;17.00;99.90;;;;;;4998397;28;20057;-77
2023/09/10 02:53:31;;;;;;;182.73;76.80;;;17.00;99.90;;;;;;4998065;28;20456;-78
2023/09/10 02:56:01;;;;;;;165.83;69.97;;;17.00;99.90;;;;;;4997348;28;20110;-79
2023/09/10 02:58:27;;;;;;;166.95;70.32;;;16.90;99.90;;;;;;4998800;28;20522;-78
2023/09/10 03:00:53;;;;;;;167.82;71.72;;;16.90;99.90;;;;;;4997449;28;20106;-78
2023/09/10 03:03:19;;;;;;;178.77;75.17;;;16.90;99.90;;;;;;4997371;28;20129;-80
2023/09/10 03:05:46;;;;;;;176.50;76.90;;;16.90;99.90;;;;;;4997883;28;20046;-80
2023/09/10 03:08:12;;;;;;;178.30;74.63;;;16.90;99.90;;;;;;4980701;28;20478;-78
2023/09/10 03:10:37;;;;;;;179.27;76.40;;;16.90;99.90;;;;;;4981029;28;20061;-80
2023/09/10 03:13:03;;;;;;;184.30;75.53;;;16.90;99.90;;;;;;4998260;28;20050;-78
2023/09/10 03:15:29;;;;;;;171.45;74.25;;;16.90;99.90;;;;;;4998259;28;20097;-78
2023/09/10 03:17:56;;;;;;;;;;;16.90;99.90;;;;;;4998666;28;20049;-79
2023/09/10 03:20:22;;;;;;;175.38;71.40;;;16.90;99.90;;;;;;4981864;28;19921;-79
2023/09/10 03:22:49;;;;;;;189.53;77.30;;;16.90;99.90;;;;;;4998901;28;20054;-78
2023/09/10 03:25:15;;;;;;;181.77;76.22;;;16.90;99.90;;;;;;5002429;28;20046;-78
2023/09/10 03:27:40;;;;;;;186.27;77.70;;;16.90;99.90;;;;;;5004211;28;20057;-78
2023/09/10 03:30:07;;;;;;;205.37;81.30;;;16.80;99.90;;;;;;5005995;28;20072;-77
2023/09/10 03:32:32;;;;;;;176.50;76.22;;;16.80;99.90;;;;;;5007108;28;20057;-77
2023/09/10 03:34:58;;;;;;;195.57;80.70;;;16.80;99.90;;;;;;5008784;28;20047;-77
2023/09/10 03:37:24;;;;;;;194.90;79.40;;;16.80;99.90;;;;;;5010031;28;20042;-78
2023/09/10 03:39:50;;;;;;;184.63;75.07;;;16.80;99.90;;;;;;4991851;28;20042;-78
2023/09/10 03:42:16;;;;;;;174.20;74.70;;;16.70;99.90;;;;;;5006163;28;20528;-78
2023/09/10 03:44:42;;;;;;;165.07;71.00;;;16.70;99.90;;;;;;4989180;28;20106;-79
2023/09/10 03:47:08;;;;;;;166.23;69.63;;;16.70;99.90;;;;;;5007213;28;20046;-78
2023/09/10 03:49:34;;;;;;;176.33;72.00;;;16.70;99.90;;;;;;5004212;28;20089;-78
2023/09/10 03:51:59;;;;;;;176.60;70.90;;;16.60;99.90;;;;;;5003843;28;20051;-79
2023/09/10 03:54:25;;;;;;;194.50;79.10;;;16.60;99.90;;;;;;5000233;28;20056;-78
2023/09/10 03:56:51;;;;;;;196.70;81.57;;;16.60;99.90;;;;;;4982254;28;20395;-78
2023/09/10 03:59:18;;;;;;;183.57;75.27;;;16.50;99.90;;;;;;4997233;28;20053;-77
2023/09/10 04:01:44;;;;;;;191.65;78.35;;;16.50;99.90;;;;;;4998774;28;20054;-78
2023/09/10 04:04:10;;;;;;;191.50;78.53;;;16.50;99.90;;;;;;4996051;28;20061;-78
2023/09/10 04:06:35;;;;;;;189.97;78.10;;;16.50;99.90;;;;;;4997236;28;20046;-78
2023/09/10 04:09:01;;;;;;;189.43;78.00;;;16.50;99.90;;;;;;4997602;28;20038;-78
2023/09/10 04:11:27;;;;;;;183.98;77.03;;;16.50;99.90;;;;;;4997535;28;20046;-78
2023/09/10 04:13:53;;;;;;;192.97;79.23;;;16.50;99.90;;;;;;4980081;28;20050;-78
2023/09/10 04:16:19;;;;;;;184.17;77.33;;;16.50;99.90;;;;;;4997132;28;20065;-78
2023/09/10 04:18:44;;;;;;;197.43;80.33;;;16.50;99.90;;;;;;4979789;28;20053;-78
2023/09/10 04:21:10;;;;;;;189.37;77.83;;;16.50;99.90;;;;;;4980097;28;20113;-77
2023/09/10 04:23:36;;;;;;;180.02;74.93;;;16.50;99.90;;;;;;4996423;28;20042;-79
2023/09/10 04:26:02;;;;;;;187.02;76.35;;;16.50;99.90;;;;;;4996690;28;20057;-77
2023/09/10 04:28:27;;;;;;;185.00;76.03;;;16.60;99.90;;;;;;4997343;28;20050;-79
2023/09/10 04:30:54;;;;;;;179.70;74.33;;;16.60;99.90;;;;;;4996799;28;20053;-78
2023/09/10 04:33:19;;;;;;;184.73;76.45;;;16.50;99.90;;;;;;4995879;28;20134;-78
2023/09/10 04:35:50;;;;;;;192.77;78.47;;;16.50;99.90;;;;;;4995502;28;20133;-78
2023/09/10 04:38:16;;;;;;;189.77;77.63;;;16.50;99.90;;;;;;4996838;28;20049;-77
2023/09/10 04:40:42;;;;;;;184.00;76.70;;;16.50;99.90;;;;;;4995650;28;20046;-76
2023/09/10 04:43:08;;;;;;;205.03;80.60;;;16.50;99.90;;;;;;4979209;28;20529;-78
2023/09/10 04:45:34;;;;;;;180.70;76.63;;;16.50;99.90;;;;;;4995613;28;20046;-78
2023/09/10 04:48:02;;;;;;;195.67;80.27;;;16.50;99.90;;;;;;4996556;28;20050;-77
2023/09/10 04:50:28;;;;;;;200.18;80.45;;;16.40;99.90;;;;;;4996540;28;20046;-78
2023/09/10 04:52:54;;;;;;;188.50;77.37;;;16.40;99.90;;;;;;4996063;28;20050;-78
2023/09/10 04:55:19;;;;;;;196.27;78.93;;;16.40;99.90;;;;;;4996397;28;20050;-77
2023/09/10 04:57:46;;;;;;;198.10;80.77;;;16.40;99.90;;;;;;4995087;28;20042;-78
2023/09/10 05:00:12;;;;;;;204.85;84.35;;;16.40;99.90;;;;;;4996707;28;20085;-78
2023/09/10 05:02:38;;;;;;;206.13;83.20;;;16.40;99.90;;;;;;4998101;28;20120;-78
2023/09/10 05:05:04;;;;;;;230.47;91.53;;;16.40;99.90;;;;;;4997737;28;20050;-78
2023/09/10 05:07:30;;;;;;;216.65;83.53;;;16.40;99.90;;;;;;4999214;28;20047;-79
2023/09/10 05:09:56;;;;;;;223.93;87.33;;;16.50;99.90;;;;;;4999173;28;20046;-79
2023/09/10 05:12:22;;;;;;;232.03;91.37;;;16.50;99.90;;;;;;4997809;28;20131;-80
2023/09/10 05:14:47;;;;;;;235.03;94.20;;;16.50;99.90;;;;;;4996711;28;20062;-80
2023/09/10 05:17:13;;;;;;;257.38;100.22;;;16.60;99.90;;;;;;4995426;28;20058;-79
2023/09/10 05:19:39;;;;;;;220.23;89.37;;;16.60;99.90;;;;;;4994543;28;20085;-78
2023/09/10 05:22:05;;;;;;;231.87;92.23;;;16.60;99.90;;;;;;4996260;28;20082;-79
2023/09/10 05:24:30;;;;;;;227.27;89.40;;;16.70;99.90;;;;;;4998830;28;20047;-79
2023/09/10 05:26:56;;;;;;;220.55;87.78;;;16.70;99.90;;;;;;4997917;28;20058;-77
2023/09/10 05:29:22;;;;;;;230.00;92.03;;;16.70;99.90;;;;;;4981047;28;20058;-80
2023/09/10 05:31:48;;;;;;;226.40;92.53;;;16.70;99.90;;;;;;4995192;28;20486;-78
2023/09/10 05:34:14;;;;;;;230.60;91.40;;;16.70;99.90;;;;;;4996659;28;20050;-79
2023/09/10 05:36:40;;;;;;;236.50;93.80;;;16.80;99.90;;;;;;4978301;28;20293;-78
2023/09/10 05:39:05;;;;;;;227.30;93.87;;;16.80;99.90;;;;;;4978084;28;20046;-79
2023/09/10 05:41:31;;;;;;;242.87;94.73;;;16.80;99.90;;;;;;4993601;28;20057;-79
2023/09/10 05:43:57;;;;;;;244.53;98.40;;;16.90;99.90;;;;;;4977792;28;20137;-80
2023/09/10 05:46:23;;;;;;;238.93;97.22;;;16.90;99.90;;;;;;4993474;28;20053;-78
2023/09/10 05:48:48;;;;;;;235.50;95.18;;;16.90;99.90;;;;;;4977333;28;20399;-79
2023/09/10 05:51:14;;;;;;;246.93;97.73;;;17.00;99.90;;;;;;4994720;28;20061;-80
2023/09/10 05:53:42;;;;;;;260.93;98.73;;;17.10;99.90;;;;;;4994087;28;20050;-80
2023/09/10 05:56:08;;;;;;;239.23;94.07;;;17.10;99.90;;;;;;4993629;28;20049;-78
2023/09/10 05:58:34;;;;;;;249.73;98.93;;;17.10;99.90;;;;;;4993076;28;20055;-78
2023/09/10 06:01:00;;;;;;;250.10;98.40;;;17.20;99.90;;;;;;4993496;28;20044;-79
2023/09/10 06:03:26;;;;;;;236.83;95.77;;;17.30;99.90;;;;;;4994708;28;20152;-77
2023/09/10 06:05:52;;;;;;;246.83;96.03;;;17.30;99.90;;;;;;4993977;28;20331;-79
2023/09/10 06:08:18;;;;;;;245.20;98.17;;;17.40;99.90;;;;;;4995160;28;20133;-78
2023/09/10 06:10:43;;;;;;;243.20;97.10;;;17.50;99.90;;;;;;4993529;28;20073;-78
2023/09/10 06:13:09;;;;;;;259.17;97.37;;;17.50;99.90;;;;;;4993657;28;20050;-79
2023/09/10 06:15:37;;;;;;;247.00;98.20;;;17.50;99.90;;;;;;4994673;28;20050;-78
2023/09/10 06:18:03;;;;;;;267.55;103.75;;;17.60;99.90;;;;;;4994058;28;20046;-79
2023/09/10 06:20:29;;;;;;;265.77;106.80;;;17.60;99.90;;;;;;4977350;28;20108;-78
2023/09/10 06:22:56;;;;;;;248.97;102.53;;;17.70;99.90;;;;;;4994149;28;20444;-77
2023/09/10 06:25:25;;;;;;;274.90;104.88;;;17.80;99.90;;;;;;4977006;28;20116;-78
2023/09/10 06:27:51;;;;;;;284.17;109.85;;;17.80;99.90;;;;;;4993708;28;20042;-79
2023/09/10 06:30:17;;;;;;;274.93;107.60;;;17.90;99.90;;;;;;4992772;28;20387;-77
2023/09/10 06:32:43;;;;;;;272.40;105.33;;;18.00;99.90;;;;;;4995373;28;20042;-79
2023/09/10 06:35:09;;;;;;;264.53;108.20;;;18.00;99.90;;;;;;4977705;28;20053;-78
2023/09/10 06:37:35;;;;;;;281.63;108.40;;;18.10;99.90;;;;;;4994570;28;20412;-77
2023/09/10 06:40:02;;;;;;;269.33;106.20;;;18.20;99.90;;;;;;4976845;28;20407;-77
2023/09/10 06:42:28;;;;;;;268.13;108.10;;;18.30;99.90;;;;;;4977047;28;20058;-78
2023/09/10 06:44:54;;;;;;;269.50;104.40;;;18.40;99.90;;;;;;4996022;28;20050;-78
2023/09/10 06:47:20;;;;;;;272.67;104.63;;;18.40;99.90;;;;;;4994122;28;20085;-79
2023/09/10 06:49:45;;;;;;;270.47;105.90;;;18.50;99.90;;;;;;4993286;28;20068;-78
2023/09/10 06:52:11;;;;;;;261.50;103.63;;;18.60;99.90;;;;;;4993835;28;20042;-78
2023/09/10 06:54:37;;;;;;;257.10;103.73;;;18.70;99.90;;;;;;4994313;28;20482;-78
2023/09/10 06:57:03;;;;;;;264.73;103.63;;;18.80;99.90;;;;;;4994447;28;20047;-77
2023/09/10 06:59:29;;;;;;;275.77;105.23;;;18.90;99.90;;;;;;4993779;28;20053;-77
2023/09/10 07:01:57;;;;;;;270.17;105.40;;;19.00;99.90;;;;;;4993916;28;20661;-76
2023/09/10 07:04:24;;;;;;;254.32;100.25;;;19.10;99.90;;;;;;4992623;28;20054;-76
2023/09/10 07:06:51;;;;;;;252.88;100.00;;;19.20;99.90;;;;;;4996149;28;20450;-77
2023/09/10 07:09:21;;;;;;;239.57;95.25;;;19.30;99.90;;;;;;4995877;28;20046;-75
2023/09/10 07:11:48;;;;;;;228.63;95.00;;;19.40;99.90;;;;;;4997417;28;20046;-77
2023/09/10 07:14:13;;;;;;;;;;;19.50;99.90;;;;;;4997818;28;20054;-77
2023/09/10 07:16:39;;;;;;;219.93;88.73;;;19.70;99.90;;;;;;4980260;28;19922;-77
2023/09/10 07:19:05;;;;;;;228.33;93.67;;;19.70;99.90;;;;;;4996764;28;20302;-77
2023/09/10 07:21:31;;;;;;;215.23;89.83;;;19.80;99.90;;;;;;4996649;28;20046;-77
2023/09/10 07:23:56;;;;;;;200.07;82.53;;;20.00;99.90;;;;;;4964424;28;20046;-77
2023/09/10 07:26:22;;;;;;;201.33;87.60;;;20.00;99.90;;;;;;4996550;28;20482;-76
2023/09/10 07:28:48;;;;;;;206.75;88.95;;;20.10;99.90;;;;;;4980728;28;20050;-76
2023/09/10 07:31:14;;;;;;;203.03;86.77;;;20.20;99.90;;;;;;4998416;28;20061;-79
2023/09/10 07:33:40;;;;;;;194.32;83.22;;;20.30;99.90;;;;;;4997051;28;20054;-77
2023/09/10 07:36:06;;;;;;;186.23;81.60;;;20.40;99.90;;;;;;4995821;28;20050;-75
2023/09/10 07:38:32;;;;;;;196.83;85.13;;;20.50;99.90;;;;;;4996872;28;20463;-75
2023/09/10 07:40:57;;;;;;;193.53;84.30;;;20.60;99.90;;;;;;4996583;28;20192;-77
2023/09/10 07:43:23;;;;;;;190.93;81.83;;;20.60;99.90;;;;;;4996128;28;20391;-78
2023/09/10 07:45:49;;;;;;;191.03;82.57;;;20.70;99.90;;;;;;4995777;28;20042;-76
2023/09/10 07:48:16;;;;;;;192.13;83.07;;;20.80;99.90;;;;;;4996517;28;20105;-76
2023/09/10 07:50:42;;;;;;;191.50;83.32;;;20.80;99.90;;;;;;4997147;28;20077;-76
2023/09/10 07:53:08;;;;;;;;;;;20.90;99.90;;;;;;4981105;28;20080;-77
2023/09/10 07:55:37;;;;;;;185.85;81.50;;;21.00;99.90;;;;;;4979504;28;20421;-76
2023/09/10 07:58:03;;;;;;;191.50;84.70;;;21.10;99.90;;;;;;4996958;28;20034;-77
2023/09/10 08:00:31;;;;;;;190.38;83.03;;;21.10;99.90;;;;;;4997313;28;20050;-76
2023/09/10 08:03:02;;;;;;;193.00;82.88;;;21.20;99.90;;;;;;4996914;28;20092;-76
2023/09/10 08:05:28;;;;;;;189.00;81.20;;;21.30;99.90;;;;;;4995561;28;20097;-75
2023/09/10 08:07:54;;;;;;;182.23;81.13;;;21.40;99.90;;;;;;4996621;28;20046;-76
2023/09/10 08:10:19;;;;;;;179.63;78.73;;;21.50;99.90;;;;;;4996750;28;20050;-77
2023/09/10 08:12:45;;;;;;;177.00;79.60;;;21.60;99.90;;;;;;4996650;28;20069;-76
2023/09/10 08:15:11;;;;;;;181.40;78.97;;;21.70;99.90;;;;;;4978974;28;20054;-77
2023/09/10 08:17:37;;;;;;;177.20;80.27;;;21.70;99.90;;;;;;4997168;28;20053;-76
2023/09/10 08:20:05;;;;;;;181.17;82.33;;;21.80;99.90;;;;;;4999254;28;20053;-76
2023/09/10 08:22:31;;;;;;;167.63;74.50;;;21.90;99.90;;;;;;4997333;28;20065;-77
2023/09/10 08:24:57;;;;;;;173.53;79.03;;;22.00;99.90;;;;;;4998599;28;20042;-75
2023/09/10 08:27:22;;;;;;;171.37;78.47;;;22.10;99.90;;;;;;4997699;28;20463;-76
2023/09/10 08:29:48;;;;;;;171.27;75.87;;;22.10;99.90;;;;;;4979558;28;20054;-76
2023/09/10 08:32:14;;;;;;;166.53;77.23;;;22.20;99.90;;;;;;4997735;28;20046;-77
2023/09/10 08:34:40;;;;;;;176.43;78.87;;;22.30;99.90;;;;;;4998167;28;20104;-77
2023/09/10 08:37:09;;;;;;;179.50;78.63;;;22.40;99.90;;;;;;4983162;28;20128;-76
2023/09/10 08:39:36;;;;;;;170.82;77.60;;;22.50;99.90;;;;;;4981803;28;20050;-75
2023/09/10 08:42:25;;;;;;;171.35;77.32;;;22.50;99.90;;;;;;4998927;28;20042;-75
2023/09/10 08:45:00;;;;;;;163.45;76.13;;;22.60;99.90;;;;;;4998268;28;20053;-76
2023/09/10 08:47:29;;;;;;;171.70;78.53;;;22.70;99.90;;;;;;4998189;28;20058;-77
2023/09/10 08:50:02;;;;;;;161.50;77.63;;;22.80;99.90;;;;;;4997379;28;20046;-75
2023/09/10 08:52:30;;;;;;;166.80;74.43;;;22.80;99.90;;;;;;4995863;28;20050;-76
2023/09/10 08:54:56;;;;;;;163.52;75.35;;;22.90;99.90;;;;;;4994776;28;20053;-76
2023/09/10 08:57:23;;;;;;;152.80;72.53;;;23.00;99.90;;;;;;4978693;28;20042;-77
2023/09/10 08:59:50;;;;;;;161.32;71.78;;;23.00;99.90;;;;;;4994980;28;20046;-75
2023/09/10 09:02:16;;;;;;;150.80;69.25;;;23.10;99.90;;;;;;4994178;28;20129;-77
2023/09/10 09:04:44;;;;;;;144.10;67.95;;;23.20;99.90;;;;;;4996724;28;20133;-75
2023/09/10 09:07:12;;;;;;;128.57;59.65;;;23.30;99.90;;;;;;4978785;28;20054;-77
2023/09/10 09:09:41;;;;;;;125.57;59.45;;;23.40;99.90;;;;;;4996058;28;20050;-77
2023/09/10 09:12:09;;;;;;;131.05;60.95;;;23.50;99.90;;;;;;4997380;28;20049;-78
2023/09/10 09:14:42;;;;;;;133.80;62.92;;;23.50;99.90;;;;;;4996735;28;20121;-77
2023/09/10 09:17:11;;;;;;;122.50;60.35;;;23.50;99.90;;;;;;4996439;28;20112;-78
2023/09/10 09:19:38;;;;;;;119.30;56.83;;;23.70;99.90;;;;;;4995022;28;20534;-75
2023/09/10 09:22:05;;;;;;;;;;;23.70;99.90;;;;;;4996843;28;20054;-76
2023/09/10 09:24:33;;;;;;;130.02;62.03;;;23.80;99.90;;;;;;4994783;28;19922;-76
2023/09/10 09:27:01;;;;;;;126.88;60.22;;;23.90;99.90;;;;;;4995400;28;20116;-76
2023/09/10 09:29:28;;;;;;;126.85;62.40;;;23.90;99.90;;;;;;4979779;28;20054;-76
2023/09/10 09:31:55;;;;;;;119.43;57.47;;;24.00;99.90;;;;;;4999206;28;20046;-78
2023/09/10 09:34:21;;;;;;;116.22;57.75;;;24.00;99.90;;;;;;4996945;28;20061;-77
2023/09/10 09:36:52;;;;;;;118.20;61.83;;;24.10;99.90;;;;;;4996342;28;20046;-78
2023/09/10 09:39:20;;;;;;;129.82;58.95;;;24.20;99.90;;;;;;4998311;28;20300;-77
2023/09/10 09:41:53;;;;;;;122.15;57.22;;;24.30;99.90;;;;;;4998570;28;20058;-78
2023/09/10 09:44:20;;;;;;;112.97;53.90;;;24.30;99.90;;;;;;4999203;28;20508;-77
2023/09/10 09:46:47;;;;;;;119.90;55.47;;;24.40;99.90;;;;;;4998410;28;20086;-77
2023/09/10 09:49:13;;;;;;;123.13;58.90;;;24.40;99.90;;;;;;5000214;28;20053;-75
2023/09/10 09:51:40;;;;;;;112.60;55.25;;;24.50;99.90;;;;;;4966437;28;20137;-77
2023/09/10 09:54:07;;;;;;;118.03;57.45;;;24.60;99.90;;;;;;4998752;28;20054;-77
2023/09/10 09:56:35;;;;;;;110.97;55.55;;;24.70;99.90;;;;;;4983230;28;20065;-80
2023/09/10 09:59:02;;;;;;;106.20;53.28;;;24.70;99.90;;;;;;5000187;28;20096;-78
2023/09/10 10:01:27;;;;;;;;;;;24.80;99.90;;;;;;5005438;28;20692;-77
2023/09/10 10:03:53;;;;;;;106.95;51.33;;;24.80;99.90;;;;;;4985918;28;19953;-80
2023/09/10 10:06:19;;;;;;;110.97;54.47;;;24.90;99.90;;;;;;4985625;28;20153;-76
2023/09/10 10:08:50;;;;;;;98.28;48.45;;;25.00;99.90;;;;;;5001485;28;20047;-79
2023/09/10 10:11:30;;;;;;;90.05;47.78;;;25.00;99.90;;;;;;5001377;28;20081;-77
2023/09/10 10:13:59;;;;;;;92.70;49.17;;;25.00;99.90;;;;;;5002761;28;20189;-76
2023/09/10 10:16:29;;;;;;;105.95;52.25;;;25.10;99.90;;;;;;5002519;28;20089;-78
2023/09/10 10:18:56;;;;;;;93.97;49.08;;;25.20;99.90;;;;;;5001876;28;20133;-78
2023/09/10 10:21:25;;;;;;;93.15;46.03;;;25.20;99.90;;;;;;5003696;28;20086;-78
2023/09/10 10:23:53;;;;;;;91.68;45.85;;;25.30;99.90;;;;;;4988943;28;20086;-80
2023/09/10 10:26:20;;;;;;;100.95;47.47;;;25.40;99.90;;;;;;5004489;28;20050;-77
2023/09/10 10:28:49;;;;;;;85.05;45.70;;;25.40;99.90;;;;;;4998550;28;20082;-77
2023/09/10 10:31:17;;;;;;;98.63;47.53;;;25.50;99.90;;;;;;4997609;28;20393;-76
2023/09/10 10:33:51;;;;;;;90.85;44.75;;;25.50;99.90;;;;;;4980181;28;20114;-78
2023/09/10 10:36:39;;;;;;;78.82;40.05;;;25.50;99.90;;;;;;4997571;28;20078;-79
2023/09/10 10:39:13;;;;;;;80.32;40.53;;;25.50;99.90;;;;;;4996073;28;20046;-76
2023/09/10 10:41:44;;;;;;;77.55;39.85;;;25.60;99.90;;;;;;5001188;28;20054;-79
2023/09/10 10:44:16;;;;;;;76.07;39.22;;;25.60;99.90;;;;;;4999945;28;20046;-78
2023/09/10 10:46:43;;;;;;;78.53;38.78;;;25.70;99.90;;;;;;4998612;28;20053;-78
2023/09/10 10:49:10;;;;;;;73.55;38.00;;;25.70;99.90;;;;;;4999864;28;20049;-78
2023/09/10 10:51:37;;;;;;;;;;;25.80;99.90;;;;;;4999295;28;20514;-80
2023/09/10 10:54:04;;;;;;;78.63;36.20;;;25.80;99.90;;;;;;4981543;28;19921;-79
2023/09/10 10:56:31;;;;;;;83.15;41.13;;;25.90;99.90;;;;;;4997888;28;20057;-77
2023/09/10 10:58:57;;;;;;;;;;;25.90;99.90;;;;;;4982929;28;20077;-80
2023/09/10 11:01:22;;;;;;;;;;;25.90;99.90;;;;;;4983419;28;20401;-79
2023/09/10 11:03:49;;;;;;;77.23;35.23;;;25.90;99.90;;;;;;4997391;28;19921;-79
2023/09/10 11:06:15;;;;;;;77.63;33.97;;;26.00;99.90;;;;;;4982269;28;20046;-79
2023/09/10 11:08:48;;;;;;;68.70;34.20;;;26.10;99.90;;;;;;4983170;28;20077;-76
2023/09/10 11:11:39;;;;;;;73.88;35.47;;;26.20;99.90;;;;;;4983891;28;20073;-79
2023/09/10 11:14:06;;;;;;;66.00;35.70;;;26.30;99.90;;;;;;4998078;28;20190;-78
2023/09/10 11:16:42;;;;;;;62.55;32.38;;;26.30;99.90;;;;;;4980613;28;20057;-78
2023/09/10 11:19:47;;;;;;;67.07;34.85;;;26.40;99.90;;;;;;4997194;28;20054;-77
2023/09/10 11:22:13;;;;;;;65.68;33.70;;;26.40;99.90;;;;;;4998335;28;20125;-80
2023/09/10 11:24:40;;;;;;;66.80;33.38;;;26.40;99.90;;;;;;4996640;28;20069;-79
2023/09/10 11:27:27;;;;;;;69.80;34.03;;;26.40;99.90;;;;;;4996658;28;20100;-76
2023/09/10 11:30:08;;;;;;;61.70;33.05;;;26.60;99.90;;;;;;4997093;28;20097;-79
2023/09/10 11:32:34;;;;;;;68.75;34.42;;;26.60;99.90;;;;;;4997847;28;20046;-81
2023/09/10 11:35:18;;;;;;;67.65;33.35;;;26.80;99.90;;;;;;4997499;28;20064;-80
2023/09/10 11:37:49;;;;;;;72.47;33.22;;;26.90;99.90;;;;;;4997316;28;20104;-79
2023/09/10 11:40:16;;;;;;;74.28;33.90;;;26.90;99.90;;;;;;4996829;28;20046;-77
2023/09/10 11:42:46;;;;;;;67.65;32.88;;;26.90;99.90;;;;;;4996237;28;20061;-78
2023/09/10 11:45:14;;;;;;;73.18;30.42;;;26.90;99.90;;;;;;4996583;28;20046;-80
2023/09/10 11:47:46;;;;;;;68.47;30.83;;;26.90;99.90;;;;;;4979858;28;20046;-79
2023/09/10 11:50:13;;;;;;;69.25;27.52;;;26.90;99.90;;;;;;4997162;28;20093;-81
2023/09/10 11:52:40;;;;;;;68.05;29.77;;;27.00;99.90;;;;;;4996959;28;20038;-80
2023/09/10 11:55:09;;;;;;;67.18;29.88;;;27.10;99.90;;;;;;4997395;28;20077;-80
2023/09/10 11:57:38;;;;;;;67.20;27.52;;;27.10;99.90;;;;;;4997825;28;20426;-78
2023/09/10 12:00:05;;;;;;;66.05;29.15;;;27.20;99.90;;;;;;4997299;28;20053;-75
2023/09/10 12:02:31;;;;;;;62.00;26.90;;;27.20;99.90;;;;;;4998386;28;20124;-78
2023/09/10 12:05:00;;;;;;;73.15;27.13;;;27.30;99.90;;;;;;5000983;28;20095;-82
2023/09/10 12:07:25;;;;;;;72.82;29.20;;;27.30;99.90;;;;;;4981406;28;20046;-80
2023/09/10 12:09:51;;;;;;;62.95;25.27;;;27.30;99.90;;;;;;4996317;28;20057;-83
2023/09/10 12:12:23;;;;;;;69.88;24.30;;;27.40;99.90;;;;;;4996032;28;20060;-79
2023/09/10 12:14:50;;;;;;;68.50;23.13;;;27.40;99.90;;;;;;4997399;28;20069;-83
2023/09/10 12:17:17;;;;;;;85.30;25.45;;;27.40;99.90;;;;;;4996060;28;20058;-79
2023/09/10 12:19:43;;;;;;;65.93;25.00;;;27.40;99.90;;;;;;4995975;28;20455;-82
2023/09/10 12:22:10;;;;;;;67.75;26.48;;;27.50;99.90;;;;;;4996364;28;20389;-80